Time;durP1;ratioP1;P1;durP2;ratioP2;P2;SDS_P1;SDS_P2;PMS_P1;PMS_P2;Temp;Humidity;BMP_temperature;BMP_pressure;BME280_temperature;BME280_humidity;BME280_pressure;Samples;Min_cycle;Max_cycle;Signal;HPM_P1;HPM_P2
2022/06/17 00:00:26;;;;;;;10.70;7.72;;;19.30;94.30;;;;;;5095942;28;20052;-80
2022/06/17 00:02:52;;;;;;;7.70;7.00;;;19.30;94.40;;;;;;5095649;28;20552;-80
2022/06/17 00:05:18;;;;;;;8.65;7.75;;;19.30;94.50;;;;;;5096200;28;20024;-81
2022/06/17 00:07:44;;;;;;;8.15;7.45;;;19.20;94.70;;;;;;5095994;28;20387;-80
2022/06/17 00:10:24;;;;;;;7.95;7.10;;;19.20;94.90;;;;;;5095122;28;20027;-81
2022/06/17 00:12:50;;;;;;;;;;;19.20;94.80;;;;;;5096339;28;20076;-80
2022/06/17 00:15:17;;;;;;;11.38;8.77;;;19.30;94.90;;;;;;5096506;28;19911;-81
2022/06/17 00:17:49;;;;;;;9.13;8.20;;;19.20;95.00;;;;;;5096080;28;20027;-80
2022/06/17 00:20:18;;;;;;;9.13;8.13;;;19.20;95.10;;;;;;5097014;28;20408;-81
2022/06/17 00:22:45;;;;;;;9.23;8.43;;;19.10;95.30;;;;;;5096420;28;20036;-81
2022/06/17 00:25:41;;;;;;;9.40;8.05;;;19.10;95.40;;;;;;5096244;28;20025;-80
2022/06/17 00:28:12;;;;;;;8.93;8.15;;;19.10;95.60;;;;;;5075139;28;20059;-82
2022/06/17 00:30:38;;;;;;;13.98;9.65;;;19.00;95.70;;;;;;5096899;28;20034;-81
2022/06/17 00:33:05;;;;;;;10.77;9.68;;;19.00;95.80;;;;;;5097877;28;20430;-81
2022/06/17 00:35:35;;;;;;;9.88;8.88;;;18.90;96.10;;;;;;5099228;28;20384;-81
2022/06/17 00:38:02;;;;;;;11.52;10.45;;;18.90;96.30;;;;;;5098476;28;20067;-81
2022/06/17 00:40:31;;;;;;;10.32;9.02;;;18.80;96.40;;;;;;5100141;28;20047;-81
2022/06/17 00:43:01;;;;;;;9.48;8.70;;;18.80;96.60;;;;;;5097472;28;20477;-81
2022/06/17 00:45:33;;;;;;;10.30;9.38;;;18.80;96.70;;;;;;5095528;28;20391;-81
2022/06/17 00:48:21;;;;;;;11.65;9.63;;;18.80;96.80;;;;;;5095852;28;20479;-81
2022/06/17 00:50:56;;;;;;;10.13;9.05;;;18.80;96.90;;;;;;5094633;28;20032;-81
2022/06/17 00:53:33;;;;;;;11.25;9.35;;;18.80;97.10;;;;;;5094736;28;20027;-82
2022/06/17 00:56:21;;;;;;;8.35;7.65;;;18.70;97.20;;;;;;5095270;28;20050;-81
2022/06/17 00:59:09;;;;;;;10.00;8.90;;;19.20;97.40;;;;;;5094591;28;20345;-81
2022/06/17 01:02:02;;;;;;;9.68;8.77;;;18.70;97.30;;;;;;5097347;28;20056;-81
2022/06/17 01:04:40;;;;;;;9.75;8.70;;;18.70;97.30;;;;;;5085044;28;20130;-82
2022/06/17 01:07:13;;;;;;;9.25;8.02;;;18.70;97.40;;;;;;5097385;28;20027;-81
2022/06/17 01:09:57;;;;;;;8.82;8.13;;;18.60;97.60;;;;;;5118368;28;20035;-82
2022/06/17 01:12:32;;;;;;;9.52;8.73;;;18.60;97.70;;;;;;5096534;28;20425;-82
2022/06/17 01:14:59;;;;;;;10.50;8.90;;;18.60;97.80;;;;;;5094534;28;20024;-81
2022/06/17 01:17:25;;;;;;;9.98;9.07;;;18.50;98.00;;;;;;5098185;28;20467;-81
2022/06/17 01:19:57;;;;;;;9.98;8.95;;;18.50;98.10;;;;;;5112496;28;20008;-81
2022/06/17 01:22:39;;;;;;;12.70;9.50;;;18.50;98.20;;;;;;5097564;28;20035;-81
2022/06/17 01:25:17;;;;;;;13.85;8.75;;;18.50;98.30;;;;;;5117241;28;20032;-81
2022/06/17 01:27:54;;;;;;;10.18;9.07;;;18.40;98.40;;;;;;5094067;28;20471;-80
2022/06/17 01:30:23;;;;;;;12.20;9.52;;;18.40;98.40;;;;;;5094620;28;20494;-80
2022/06/17 01:33:00;;;;;;;11.38;10.10;;;18.40;98.60;;;;;;5094301;28;20070;-81
2022/06/17 01:35:30;;;;;;;10.77;9.75;;;18.30;98.80;;;;;;5093720;28;20468;-80
2022/06/17 01:37:57;;;;;;;10.82;9.77;;;18.30;98.90;;;;;;5094236;28;20036;-81
2022/06/17 01:40:24;;;;;;;11.95;10.80;;;18.30;99.10;;;;;;5094039;28;20028;-80
2022/06/17 01:42:50;;;;;;;11.80;10.80;;;18.30;99.20;;;;;;5093329;28;20464;-81
2022/06/17 01:45:16;;;;;;;13.13;10.77;;;18.30;99.20;;;;;;5094262;28;20072;-80
2022/06/17 01:47:44;;;;;;;10.35;9.48;;;18.30;99.30;;;;;;5093551;28;20055;-81
2022/06/17 01:50:26;;;;;;;11.50;10.40;;;18.20;99.40;;;;;;5093694;28;20032;-80
2022/06/17 01:53:02;;;;;;;10.65;9.75;;;18.20;99.60;;;;;;5093685;28;20027;-80
2022/06/17 01:55:41;;;;;;;11.20;10.10;;;18.20;99.70;;;;;;5096201;28;20027;-80
2022/06/17 01:58:17;;;;;;;13.77;10.35;;;18.20;99.80;;;;;;5094449;28;20024;-81
2022/06/17 02:00:43;;;;;;;11.50;9.90;;;18.10;99.80;;;;;;5099544;28;20048;-81
2022/06/17 02:03:20;;;;;;;11.38;10.27;;;18.10;99.90;;;;;;5097804;28;20024;-81
2022/06/17 02:05:50;;;;;;;13.43;9.88;;;18.10;99.90;;;;;;5100959;28;20054;-81
2022/06/17 02:08:19;;;;;;;11.93;10.85;;;18.00;99.90;;;;;;5093809;28;20031;-81
2022/06/17 02:10:49;;;;;;;14.10;10.90;;;18.00;99.90;;;;;;5093149;28;20031;-81
2022/06/17 02:13:15;;;;;;;12.02;10.85;;;18.00;99.90;;;;;;5093585;28;20019;-81
2022/06/17 02:15:42;;;;;;;12.02;10.18;;;18.00;99.90;;;;;;5093544;28;20028;-80
2022/06/17 02:18:13;;;;;;;12.00;9.52;;;18.00;99.90;;;;;;5093890;28;20024;-81
2022/06/17 02:20:41;;;;;;;10.90;10.00;;;17.90;99.90;;;;;;5093792;28;20365;-80
2022/06/17 02:23:07;;;;;;;13.95;12.00;;;18.00;99.90;;;;;;5093015;28;20057;-81
2022/06/17 02:25:43;;;;;;;11.02;10.02;;;17.90;99.90;;;;;;5092881;28;20039;-81
2022/06/17 02:28:10;;;;;;;11.27;10.27;;;17.90;99.90;;;;;;5093230;28;20472;-81
2022/06/17 02:30:37;;;;;;;10.52;9.63;;;17.90;99.90;;;;;;5092583;28;20031;-81
2022/06/17 02:33:05;;;;;;;11.38;10.40;;;17.90;99.90;;;;;;5093773;28;20031;-82
2022/06/17 02:36:00;;;;;;;13.95;11.00;;;18.00;99.90;;;;;;5096444;28;20123;-81
2022/06/17 02:38:30;;;;;;;11.55;10.45;;;17.90;99.90;;;;;;5093924;28;20031;-80
2022/06/17 02:41:07;;;;;;;11.00;9.90;;;17.90;99.90;;;;;;5093889;28;20032;-80
2022/06/17 02:43:41;;;;;;;11.65;9.85;;;17.90;99.90;;;;;;5095120;28;20031;-80
2022/06/17 02:46:14;;;;;;;13.05;9.93;;;17.90;99.90;;;;;;5094011;28;20031;-82
2022/06/17 02:48:45;;;;;;;11.07;10.00;;;17.90;99.90;;;;;;5098000;28;20027;-81
2022/06/17 02:51:12;;;;;;;11.02;10.10;;;17.80;99.90;;;;;;5095291;28;20028;-82
2022/06/17 02:53:39;;;;;;;10.23;9.05;;;17.90;99.90;;;;;;5093078;28;20430;-81
2022/06/17 02:56:17;;;;;;;10.20;9.13;;;17.90;99.90;;;;;;5093510;28;20024;-81
2022/06/17 02:59:03;;;;;;;11.30;9.20;;;17.90;99.90;;;;;;5092358;28;20055;-81
2022/06/17 03:01:31;;;;;;;9.57;8.77;;;17.90;99.90;;;;;;5093458;28;20036;-79
2022/06/17 03:03:58;;;;;;;10.57;9.45;;;17.90;99.90;;;;;;5092869;28;20024;-80
2022/06/17 03:06:36;;;;;;;10.20;9.30;;;18.00;99.90;;;;;;5092161;28;20107;-80
2022/06/17 03:09:25;;;;;;;9.70;8.73;;;18.00;99.90;;;;;;5092412;28;20483;-79
2022/06/17 03:12:03;;;;;;;10.30;8.95;;;18.00;99.90;;;;;;5092158;28;20379;-79
2022/06/17 03:14:34;;;;;;;12.00;8.65;;;18.00;99.90;;;;;;5103870;28;20030;-79
2022/06/17 03:17:02;;;;;;;9.98;8.90;;;18.00;99.90;;;;;;5104082;28;20443;-80
2022/06/17 03:19:30;;;;;;;12.07;9.25;;;18.00;99.90;;;;;;5091723;28;20115;-80
2022/06/17 03:21:56;;;;;;;10.70;9.60;;;18.10;99.90;;;;;;5092315;28;20043;-80
2022/06/17 03:24:33;;;;;;;11.20;8.55;;;18.10;99.90;;;;;;5099104;28;20025;-79
2022/06/17 03:27:04;;;;;;;9.35;8.55;;;18.10;99.90;;;;;;5104821;28;20027;-80
2022/06/17 03:29:32;;;;;;;12.82;10.23;;;18.10;99.90;;;;;;5101562;28;20055;-80
2022/06/17 03:32:01;;;;;;;9.77;8.15;;;18.10;99.90;;;;;;5107538;28;20103;-80
2022/06/17 03:34:42;;;;;;;9.85;7.65;;;18.10;99.90;;;;;;5092067;28;20031;-80
2022/06/17 03:37:30;;;;;;;10.38;9.10;;;18.10;99.90;;;;;;5094819;28;20043;-79
2022/06/17 03:40:20;;;;;;;8.82;7.57;;;18.10;99.90;;;;;;5095056;28;20039;-80
2022/06/17 03:43:01;;;;;;;9.48;8.52;;;18.20;99.90;;;;;;5095842;28;20515;-80
2022/06/17 03:45:34;;;;;;;11.57;8.20;;;18.20;99.90;;;;;;5096104;28;20036;-80
2022/06/17 03:48:12;;;;;;;9.52;8.73;;;18.20;99.90;;;;;;5095404;28;20112;-80
2022/06/17 03:50:44;;;;;;;9.85;8.82;;;18.20;99.90;;;;;;5095836;28;20081;-80
2022/06/17 03:53:27;;;;;;;8.45;7.80;;;18.20;99.90;;;;;;5095717;28;20133;-80
2022/06/17 03:55:56;;;;;;;9.32;8.30;;;18.20;99.90;;;;;;5095277;28;20034;-80
2022/06/17 03:58:22;;;;;;;9.90;8.98;;;18.20;99.90;;;;;;5095750;28;20063;-81
2022/06/17 04:00:57;;;;;;;9.45;8.65;;;18.30;99.90;;;;;;5095355;28;20048;-79
2022/06/17 04:03:25;;;;;;;9.85;8.85;;;18.20;99.90;;;;;;5095001;28;20056;-80
2022/06/17 04:05:56;;;;;;;10.23;9.25;;;18.20;99.90;;;;;;5095277;28;20081;-80
2022/06/17 04:08:21;;;;;;;10.25;9.23;;;18.20;99.90;;;;;;5095307;28;20028;-79
2022/06/17 04:10:47;;;;;;;9.38;8.40;;;18.30;99.90;;;;;;5095671;28;20032;-80
2022/06/17 04:13:16;;;;;;;10.35;8.90;;;18.20;99.90;;;;;;5095399;28;20029;-81
2022/06/17 04:15:50;;;;;;;12.45;8.77;;;18.20;99.90;;;;;;5094657;28;20051;-80
2022/06/17 04:18:16;;;;;;;9.60;8.60;;;18.20;99.90;;;;;;5095185;28;20064;-80
2022/06/17 04:20:49;;;;;;;11.00;8.43;;;18.30;99.90;;;;;;5095206;28;20056;-80
2022/06/17 04:23:19;;;;;;;9.90;9.10;;;18.30;99.90;;;;;;5095614;28;20028;-80
2022/06/17 04:25:57;;;;;;;10.48;9.40;;;18.30;99.90;;;;;;5095158;28;20073;-79
2022/06/17 04:28:27;;;;;;;9.57;8.63;;;18.40;99.90;;;;;;5094994;28;20024;-80
2022/06/17 04:31:01;;;;;;;10.27;9.23;;;18.40;99.90;;;;;;5094378;28;20557;-81
2022/06/17 04:33:40;;;;;;;9.40;8.60;;;18.40;99.90;;;;;;5095101;28;20109;-80
2022/06/17 04:36:19;;;;;;;9.55;8.32;;;18.40;99.90;;;;;;5095009;28;20036;-80
2022/06/17 04:38:53;;;;;;;9.93;8.85;;;18.50;99.90;;;;;;5094309;28;20028;-80
2022/06/17 04:41:21;;;;;;;10.57;9.05;;;18.50;99.90;;;;;;5094665;28;20036;-79
2022/06/17 04:43:49;;;;;;;9.95;9.05;;;18.60;99.90;;;;;;5093866;28;20414;-80
2022/06/17 04:46:22;;;;;;;10.07;9.13;;;18.60;99.90;;;;;;5094700;28;20112;-79
2022/06/17 04:48:49;;;;;;;11.48;10.38;;;18.60;99.90;;;;;;5094651;28;20032;-80
2022/06/17 04:51:15;;;;;;;11.00;8.63;;;18.60;99.90;;;;;;5093830;28;20065;-80
2022/06/17 04:53:45;;;;;;;11.27;8.80;;;18.60;99.90;;;;;;5095271;28;20507;-80
2022/06/17 04:56:21;;;;;;;11.93;10.15;;;18.60;99.90;;;;;;5094743;28;20020;-80
2022/06/17 04:58:46;;;;;;;13.38;9.02;;;18.60;99.90;;;;;;5093799;28;20028;-81
2022/06/17 05:01:18;;;;;;;9.40;8.50;;;18.70;99.90;;;;;;5094870;28;20573;-79
2022/06/17 05:03:44;;;;;;;15.27;10.52;;;18.70;99.90;;;;;;5094456;28;20350;-79
2022/06/17 05:06:10;;;;;;;12.07;9.32;;;18.70;99.90;;;;;;5093568;28;20024;-80
2022/06/17 05:08:42;;;;;;;12.55;9.80;;;18.70;99.90;;;;;;5094894;28;20379;-79
2022/06/17 05:11:23;;;;;;;12.07;9.88;;;18.80;99.90;;;;;;5097042;28;20028;-81
2022/06/17 05:14:03;;;;;;;13.90;9.77;;;18.80;99.90;;;;;;5096295;28;20024;-80
2022/06/17 05:16:29;;;;;;;10.10;9.10;;;18.90;99.90;;;;;;5095196;28;20447;-79
2022/06/17 05:18:55;;;;;;;10.27;9.25;;;18.80;99.90;;;;;;5095138;28;20040;-79
2022/06/17 05:21:23;;;;;;;11.93;9.90;;;18.90;99.90;;;;;;5108980;28;20042;-79
2022/06/17 05:23:53;;;;;;;11.55;10.43;;;18.90;99.90;;;;;;5105193;28;20398;-80
2022/06/17 05:26:19;;;;;;;;;;;19.00;99.90;;;;;;5098106;28;20039;-80
2022/06/17 05:28:46;;;;;;;13.38;9.15;;;19.00;99.90;;;;;;5094682;28;20276;-80
2022/06/17 05:31:16;;;;;;;11.38;10.10;;;19.00;99.90;;;;;;5106628;28;20093;-79
2022/06/17 05:33:42;;;;;;;14.45;9.52;;;19.00;99.90;;;;;;5098452;28;20027;-80
2022/06/17 05:36:08;;;;;;;10.80;9.43;;;19.10;99.90;;;;;;5107183;28;20072;-79
2022/06/17 05:38:33;;;;;;;11.13;9.35;;;19.10;99.90;;;;;;5106568;28;20436;-80
2022/06/17 05:40:59;;;;;;;13.57;10.13;;;19.20;99.90;;;;;;5093885;28;20089;-80
2022/06/17 05:43:25;;;;;;;10.43;9.48;;;19.20;99.90;;;;;;5094529;28;20475;-81
2022/06/17 05:45:50;;;;;;;10.15;9.15;;;19.20;99.90;;;;;;5093736;28;20084;-81
2022/06/17 05:48:16;;;;;;;12.98;10.73;;;19.40;99.90;;;;;;5093438;28;20098;-80
2022/06/17 05:50:41;;;;;;;11.20;10.00;;;19.50;99.90;;;;;;5093723;28;20032;-80
2022/06/17 05:53:10;;;;;;;10.90;9.45;;;19.50;99.90;;;;;;5093729;28;20361;-80
2022/06/17 05:55:36;;;;;;;11.27;9.07;;;19.60;99.90;;;;;;5092987;28;20030;-79
2022/06/17 05:58:03;;;;;;;12.02;10.75;;;19.60;99.90;;;;;;5093369;28;20020;-81
2022/06/17 06:00:30;;;;;;;14.32;10.27;;;19.70;99.60;;;;;;5092769;28;20044;-80
2022/06/17 06:03:01;;;;;;;10.45;9.40;;;19.80;99.50;;;;;;5093508;28;20032;-80
2022/06/17 06:05:31;;;;;;;14.65;10.27;;;19.90;99.20;;;;;;5093733;28;20066;-79
2022/06/17 06:07:57;;;;;;;13.63;10.38;;;20.00;98.90;;;;;;5092767;28;20028;-81
2022/06/17 06:10:24;;;;;;;13.98;9.93;;;20.00;98.80;;;;;;5093148;28;20024;-80
2022/06/17 06:13:04;;;;;;;23.13;9.52;;;20.10;99.00;;;;;;5093160;28;20047;-79
2022/06/17 06:15:38;;;;;;;9.65;8.82;;;20.10;99.00;;;;;;5093057;28;20051;-78
2022/06/17 06:18:04;;;;;;;10.50;9.40;;;20.10;99.10;;;;;;5093604;28;20107;-79
2022/06/17 06:20:30;;;;;;;10.18;9.15;;;20.20;98.90;;;;;;5092977;28;20074;-81
2022/06/17 06:22:55;;;;;;;12.52;8.90;;;20.20;98.70;;;;;;5092572;28;20032;-80
2022/06/17 06:25:21;;;;;;;10.93;10.02;;;20.30;98.70;;;;;;5092897;28;20025;-80
2022/06/17 06:27:47;;;;;;;9.38;8.57;;;20.40;98.40;;;;;;5092838;28;20395;-80
2022/06/17 06:30:26;;;;;;;13.75;9.18;;;20.50;98.40;;;;;;5092733;28;20054;-80
2022/06/17 06:32:58;;;;;;;9.77;8.87;;;20.50;98.30;;;;;;5093261;28;20021;-81
2022/06/17 06:35:27;;;;;;;10.10;9.13;;;20.50;98.20;;;;;;5092892;28;20380;-80
2022/06/17 06:37:53;;;;;;;9.68;8.65;;;20.60;98.00;;;;;;5091929;28;20032;-81
2022/06/17 06:40:19;;;;;;;9.63;8.68;;;20.60;98.30;;;;;;5093058;28;20028;-80
2022/06/17 06:42:47;;;;;;;10.15;9.15;;;20.60;98.40;;;;;;5094206;28;20047;-80
2022/06/17 06:45:23;;;;;;;10.20;9.30;;;20.70;98.30;;;;;;5092278;28;20369;-80
2022/06/17 06:47:51;;;;;;;10.23;8.60;;;20.90;98.40;;;;;;5092776;28;20028;-80
2022/06/17 06:50:23;;;;;;;11.45;8.48;;;21.00;98.40;;;;;;5092080;28;20027;-80
2022/06/17 06:52:49;;;;;;;12.32;8.13;;;21.10;98.20;;;;;;5093776;28;20024;-80
2022/06/17 06:55:16;;;;;;;8.75;8.05;;;21.00;97.90;;;;;;5092697;28;20027;-80
2022/06/17 06:57:51;;;;;;;8.43;7.63;;;21.10;97.90;;;;;;5092533;28;20028;-80
2022/06/17 07:00:30;;;;;;;9.25;8.32;;;21.00;98.10;;;;;;5092641;28;20169;-80
2022/06/17 07:02:56;;;;;;;7.75;7.05;;;21.00;97.80;;;;;;5092631;28;20499;-80
2022/06/17 07:05:22;;;;;;;9.43;8.05;;;21.10;97.70;;;;;;5091908;28;20060;-80
2022/06/17 07:07:48;;;;;;;9.07;8.20;;;21.10;97.40;;;;;;5092939;28;20114;-80
2022/06/17 07:10:19;;;;;;;9.82;7.45;;;21.20;96.70;;;;;;5093721;28;20031;-80
2022/06/17 07:12:45;;;;;;;8.20;7.40;;;21.20;96.60;;;;;;5096373;28;20020;-81
2022/06/17 07:15:11;;;;;;;8.55;7.65;;;21.30;96.50;;;;;;5096455;28;20372;-81
2022/06/17 07:17:36;;;;;;;8.80;8.00;;;21.30;96.70;;;;;;5096661;28;20084;-80
2022/06/17 07:20:03;;;;;;;10.70;7.88;;;21.40;96.70;;;;;;5095693;28;20027;-80
2022/06/17 07:22:29;;;;;;;9.43;8.23;;;21.40;96.70;;;;;;5096224;28;20036;-80
2022/06/17 07:24:57;;;;;;;11.90;9.07;;;21.50;96.50;;;;;;5096250;28;20103;-80
2022/06/17 07:27:23;;;;;;;8.68;7.88;;;21.50;96.40;;;;;;5110330;28;20012;-80
2022/06/17 07:29:48;;;;;;;9.27;7.90;;;21.50;96.30;;;;;;5107369;28;20429;-80
2022/06/17 07:32:14;;;;;;;8.02;7.22;;;21.60;95.90;;;;;;5095565;28;20031;-80
2022/06/17 07:34:40;;;;;;;12.77;7.63;;;21.60;95.60;;;;;;5097554;28;20069;-81
2022/06/17 07:39:56;;;;;;;10.18;6.50;;;21.60;95.30;;;;;;5098300;28;20113;-81
2022/06/17 07:42:24;;;;;;;9.02;7.70;;;21.60;95.50;;;;;;5111369;28;20036;-81
2022/06/17 07:44:50;;;;;;;9.23;7.25;;;21.80;95.70;;;;;;5109252;28;20047;-80
2022/06/17 07:47:19;;;;;;;7.50;6.03;;;21.90;95.00;;;;;;5096897;28;20028;-80
2022/06/17 07:49:45;;;;;;;9.80;7.07;;;21.90;95.30;;;;;;5097170;28;20048;-81
2022/06/17 07:52:10;;;;;;;9.77;6.47;;;22.00;95.50;;;;;;5096214;28;20522;-80
2022/06/17 07:54:36;;;;;;;8.30;6.45;;;22.00;95.50;;;;;;5095487;28;20570;-80
2022/06/17 07:57:02;;;;;;;9.02;6.97;;;22.10;95.50;;;;;;5096447;28;20024;-80
2022/06/17 07:59:28;;;;;;;7.20;5.95;;;22.10;95.60;;;;;;5097086;28;20071;-80
2022/06/17 08:01:53;;;;;;;7.82;5.75;;;22.20;95.60;;;;;;5096433;28;20475;-80
2022/06/17 08:04:19;;;;;;;6.80;6.10;;;22.30;95.00;;;;;;5096299;28;20388;-80
2022/06/17 08:06:49;;;;;;;7.22;5.88;;;22.40;95.50;;;;;;5095659;28;20110;-80
2022/06/17 08:09:16;;;;;;;6.82;5.70;;;22.50;95.50;;;;;;5095224;28;20028;-80
2022/06/17 08:11:48;;;;;;;5.40;4.82;;;22.50;95.10;;;;;;5095323;28;20115;-79
2022/06/17 08:14:14;;;;;;;7.03;4.47;;;22.60;94.40;;;;;;5095569;28;20032;-80
2022/06/17 08:16:39;;;;;;;5.15;4.35;;;22.70;94.50;;;;;;5095287;28;20027;-80
2022/06/17 08:19:07;;;;;;;7.25;5.07;;;22.70;94.60;;;;;;5095325;28;20471;-81
2022/06/17 08:21:34;;;;;;;5.68;4.55;;;22.80;94.50;;;;;;5093971;28;20036;-80
2022/06/17 08:24:00;;;;;;;5.25;4.75;;;22.90;94.20;;;;;;5095424;28;20044;-80
2022/06/17 08:26:28;;;;;;;8.90;3.40;;;23.00;93.50;;;;;;5095440;28;20056;-80
2022/06/17 08:28:54;;;;;;;5.05;3.88;;;23.00;92.70;;;;;;5094512;28;20027;-80
2022/06/17 08:31:19;;;;;;;6.30;4.15;;;23.10;92.00;;;;;;5095036;28;20032;-80
2022/06/17 08:33:46;;;;;;;5.53;4.22;;;23.10;91.80;;;;;;5095377;28;20048;-80
2022/06/17 08:36:15;;;;;;;8.75;4.28;;;23.10;92.00;;;;;;5096204;28;20046;-79
2022/06/17 08:39:04;;;;;;;6.30;4.25;;;23.20;92.10;;;;;;5094908;28;20028;-80
2022/06/17 08:41:33;;;;;;;11.77;3.97;;;23.20;92.10;;;;;;5094889;28;20044;-79
2022/06/17 08:44:17;;;;;;;6.97;3.47;;;23.30;92.30;;;;;;5095077;28;20035;-80
2022/06/17 08:46:57;;;;;;;9.35;4.25;;;23.40;92.10;;;;;;5094622;28;20504;-80
2022/06/17 08:49:41;;;;;;;;;;;23.50;91.90;;;;;;5095312;28;20070;-80
2022/06/17 08:52:32;;;;;;;6.00;3.95;;;23.60;91.70;;;;;;5094860;28;19904;-80
2022/06/17 08:55:06;;;;;;;5.57;4.70;;;23.70;91.30;;;;;;5094631;28;20024;-80
2022/06/17 08:58:11;;;;;;;4.13;3.72;;;23.80;91.20;;;;;;5093734;28;20024;-80
2022/06/17 09:00:47;;;;;;;4.13;3.72;;;23.80;91.30;;;;;;5094170;28;20040;-79
2022/06/17 09:03:37;;;;;;;7.13;3.20;;;23.80;91.30;;;;;;5094439;28;20051;-80
2022/06/17 09:06:23;;;;;;;3.72;2.80;;;23.90;91.40;;;;;;5094700;28;20020;-80
2022/06/17 09:09:02;;;;;;;7.22;3.47;;;24.00;91.50;;;;;;5094377;28;20028;-80
2022/06/17 09:11:58;;;;;;;4.15;3.08;;;24.10;91.90;;;;;;5093576;28;20488;-80
2022/06/17 09:14:41;;;;;;;2.80;2.60;;;24.20;91.80;;;;;;5094438;28;20380;-80
2022/06/17 09:17:18;;;;;;;3.50;3.20;;;24.30;92.00;;;;;;5094263;28;20098;-80
2022/06/17 09:19:46;;;;;;;5.95;2.95;;;24.40;90.70;;;;;;5093501;28;20093;-80
2022/06/17 09:22:16;;;;;;;6.82;3.10;;;24.40;90.90;;;;;;5094015;28;20067;-79
2022/06/17 09:24:44;;;;;;;4.73;3.80;;;24.50;91.00;;;;;;5094531;28;20055;-81
2022/06/17 09:27:24;;;;;;;8.20;3.05;;;24.60;90.50;;;;;;5094095;28;20055;-80
2022/06/17 09:30:12;;;;;;;7.43;3.20;;;24.70;90.60;;;;;;5094050;28;20024;-78
2022/06/17 09:32:48;;;;;;;5.43;3.65;;;24.80;90.30;;;;;;5096114;28;20379;-78
2022/06/17 09:35:13;;;;;;;3.30;3.00;;;24.80;89.20;;;;;;5108302;28;20115;-78
2022/06/17 09:38:07;;;;;;;7.15;3.15;;;24.90;89.50;;;;;;5094010;28;20035;-78
2022/06/17 09:40:53;;;;;;;6.90;2.75;;;25.00;89.60;;;;;;5069663;28;20398;-80
2022/06/17 09:43:37;;;;;;;5.88;4.25;;;25.10;90.30;;;;;;5096687;28;20064;-79
2022/06/17 09:46:32;;;;;;;4.18;3.30;;;25.20;88.80;;;;;;5098789;28;20027;-80
2022/06/17 09:49:08;;;;;;;5.78;3.33;;;25.20;89.20;;;;;;5103968;28;20016;-79
2022/06/17 09:51:57;;;;;;;5.55;3.75;;;25.30;89.30;;;;;;5100429;28;20437;-80
2022/06/17 09:54:35;;;;;;;4.90;3.42;;;25.40;87.80;;;;;;5092944;28;20027;-80
2022/06/17 09:57:08;;;;;;;3.72;3.25;;;25.40;87.90;;;;;;5093366;28;20035;-80
2022/06/17 09:59:42;;;;;;;6.15;3.88;;;25.40;87.60;;;;;;5093085;28;20056;-79
2022/06/17 10:02:26;;;;;;;4.82;3.65;;;25.40;86.70;;;;;;5092470;28;20450;-79
2022/06/17 10:05:10;;;;;;;7.88;3.90;;;25.50;87.50;;;;;;5093484;28;20087;-79
2022/06/17 10:07:50;;;;;;;6.63;4.32;;;25.50;87.90;;;;;;5092541;28;20024;-80
2022/06/17 10:10:36;;;;;;;4.20;3.38;;;25.60;86.80;;;;;;5093215;28;20032;-80
2022/06/17 10:13:38;;;;;;;5.20;3.42;;;25.60;86.40;;;;;;5093056;28;20024;-80
2022/06/17 10:19:50;;;;;;;3.50;3.20;;;25.70;87.20;;;;;;5069169;28;20028;-78
2022/06/17 10:22:41;;;;;;;5.70;3.00;;;25.90;86.90;;;;;;5092493;28;20119;-78
2022/06/17 10:25:34;;;;;;;5.75;3.28;;;26.00;86.60;;;;;;5095098;28;20024;-77
2022/06/17 10:28:13;;;;;;;4.90;3.00;;;26.10;84.30;;;;;;5094943;28;20027;-80
2022/06/17 10:31:03;;;;;;;8.10;3.22;;;26.10;84.90;;;;;;5093610;28;20099;-78
2022/06/17 10:33:34;;;;;;;5.75;3.38;;;26.20;85.00;;;;;;5093283;28;20383;-78
2022/06/17 10:36:00;;;;;;;6.43;2.92;;;26.20;84.80;;;;;;5093297;28;20020;-77
2022/06/17 10:38:32;;;;;;;15.25;2.90;;;26.40;82.20;;;;;;5093547;28;20085;-78
2022/06/17 10:40:58;;;;;;;6.93;2.60;;;26.40;82.00;;;;;;5092865;28;20044;-79
2022/06/17 10:43:34;;;;;;;5.32;3.20;;;26.50;82.00;;;;;;5091958;28;20039;-78
2022/06/17 10:46:01;;;;;;;4.60;3.22;;;26.50;82.30;;;;;;5094695;28;20046;-79
2022/06/17 10:48:40;;;;;;;3.22;2.80;;;26.50;81.60;;;;;;5096363;28;20326;-78
2022/06/17 10:51:07;;;;;;;5.03;2.60;;;26.60;81.00;;;;;;5096168;28;20024;-79
2022/06/17 10:53:44;;;;;;;4.03;2.35;;;26.60;80.50;;;;;;5096765;28;20036;-81
2022/06/17 10:56:18;;;;;;;5.10;2.60;;;26.70;80.10;;;;;;5096114;28;20036;-78
2022/06/17 10:59:13;;;;;;;4.20;2.72;;;26.80;78.30;;;;;;5096562;28;20024;-79
2022/06/17 11:01:45;;;;;;;4.68;2.60;;;26.80;78.00;;;;;;5075269;28;20052;-78
2022/06/17 11:04:17;;;;;;;4.18;2.67;;;26.90;79.30;;;;;;5095929;28;20017;-77
2022/06/17 11:07:03;;;;;;;5.10;2.22;;;27.00;78.30;;;;;;5096246;28;20058;-78
2022/06/17 11:09:35;;;;;;;5.60;2.63;;;27.00;78.00;;;;;;5095736;28;20051;-78
2022/06/17 11:12:08;;;;;;;3.35;2.78;;;27.20;76.10;;;;;;5095734;28;20023;-78
2022/06/17 11:14:38;;;;;;;2.40;2.05;;;27.30;76.30;;;;;;5096402;28;20054;-79
2022/06/17 11:17:14;;;;;;;2.60;2.30;;;27.40;76.30;;;;;;5096133;28;20016;-79
2022/06/17 11:19:41;;;;;;;4.55;2.30;;;27.40;75.60;;;;;;5096103;28;20055;-79
2022/06/17 11:22:21;;;;;;;6.68;2.35;;;27.50;75.00;;;;;;5096070;28;20388;-78
2022/06/17 11:24:55;;;;;;;;;;;27.60;74.40;;;;;;5095883;28;20044;-78
2022/06/17 11:27:43;;;;;;;6.63;3.42;;;27.60;74.10;;;;;;5096022;28;19999;-78
2022/06/17 11:30:22;;;;;;;4.93;2.00;;;27.70;73.80;;;;;;5095880;28;20028;-78
2022/06/17 11:32:49;;;;;;;4.93;2.00;;;27.70;74.60;;;;;;5095347;28;20036;-78
2022/06/17 11:35:33;;;;;;;4.07;1.88;;;27.80;75.10;;;;;;5096145;28;20024;-79
2022/06/17 11:38:01;;;;;;;2.38;1.90;;;27.90;74.10;;;;;;5096056;28;20567;-78
2022/06/17 11:40:32;;;;;;;3.47;2.55;;;28.00;73.10;;;;;;5100769;28;20058;-76
2022/06/17 11:43:04;;;;;;;3.28;2.05;;;28.10;69.80;;;;;;5099271;28;20040;-78
2022/06/17 11:45:41;;;;;;;3.35;2.20;;;28.20;71.60;;;;;;5094962;28;20058;-78
2022/06/17 11:48:18;;;;;;;4.60;1.80;;;28.40;70.20;;;;;;5095733;28;20028;-80
2022/06/17 11:51:01;;;;;;;3.38;1.98;;;28.40;70.90;;;;;;5099289;28;20024;-78
2022/06/17 11:53:29;;;;;;;3.67;2.00;;;28.60;70.70;;;;;;5097197;28;20638;-78
2022/06/17 11:55:55;;;;;;;2.45;2.08;;;28.70;70.50;;;;;;5107228;28;20024;-79
2022/06/17 11:58:20;;;;;;;2.33;2.13;;;28.80;70.00;;;;;;5099709;28;20031;-78
2022/06/17 12:00:51;;;;;;;6.07;2.00;;;28.90;69.40;;;;;;5094591;28;20496;-78
2022/06/17 12:03:35;;;;;;;2.58;1.80;;;29.00;69.20;;;;;;5095478;28;20031;-78
2022/06/17 12:06:02;;;;;;;4.05;1.98;;;29.00;70.10;;;;;;5095380;28;20028;-78
2022/06/17 12:08:52;;;;;;;1.73;1.63;;;29.10;70.80;;;;;;5094696;28;20024;-78
2022/06/17 12:11:27;;;;;;;3.20;1.88;;;29.20;69.80;;;;;;5094396;28;20032;-78
2022/06/17 12:13:58;;;;;;;2.45;2.00;;;29.40;69.30;;;;;;5094847;28;20174;-78
2022/06/17 12:16:41;;;;;;;4.85;2.15;;;29.40;67.80;;;;;;5096766;28;20031;-78
2022/06/17 12:19:21;;;;;;;2.72;1.60;;;29.50;68.60;;;;;;5095414;28;20035;-79
2022/06/17 12:22:10;;;;;;;3.25;1.75;;;29.60;68.50;;;;;;5094412;28;20491;-78
2022/06/17 12:25:09;;;;;;;2.22;2.03;;;29.70;68.50;;;;;;5095585;28;20020;-79
2022/06/17 12:27:50;;;;;;;3.38;2.17;;;29.80;68.20;;;;;;5088498;28;20031;-78
2022/06/17 12:30:51;;;;;;;4.93;2.28;;;29.90;68.50;;;;;;5095141;28;20028;-79
2022/06/17 12:33:48;;;;;;;1.70;1.60;;;30.00;67.10;;;;;;5094953;28;20039;-78
2022/06/17 12:36:37;;;;;;;4.93;2.20;;;30.10;66.90;;;;;;5094257;28;20031;-77
2022/06/17 12:39:18;;;;;;;2.10;1.90;;;30.20;66.10;;;;;;5095463;28;20024;-78
2022/06/17 12:42:08;;;;;;;2.65;1.90;;;30.30;66.80;;;;;;5094128;28;20106;-79
2022/06/17 12:44:47;;;;;;;4.65;1.90;;;30.40;66.40;;;;;;5095103;28;20557;-78
2022/06/17 12:47:42;;;;;;;4.30;2.03;;;30.60;65.20;;;;;;5094794;28;20059;-79
2022/06/17 12:53:15;;;;;;;3.17;1.80;;;30.60;65.10;;;;;;5094513;28;20035;-80
2022/06/17 12:55:46;;;;;;;1.73;1.63;;;30.60;65.80;;;;;;5094349;28;20032;-79
2022/06/17 12:58:27;;;;;;;4.57;1.92;;;30.70;66.20;;;;;;5094356;28;20019;-79
2022/06/17 13:00:59;;;;;;;5.45;1.90;;;30.80;65.20;;;;;;5094501;28;20048;-79
2022/06/17 13:03:51;;;;;;;4.82;2.00;;;30.80;64.60;;;;;;5095308;28;20054;-78
2022/06/17 13:06:29;;;;;;;4.22;1.95;;;30.70;65.10;;;;;;5095882;28;20028;-78
2022/06/17 13:09:06;;;;;;;4.43;2.60;;;30.70;66.50;;;;;;5094013;28;20081;-80
2022/06/17 13:11:46;;;;;;;4.22;2.20;;;30.80;65.30;;;;;;5093502;28;20028;-78
2022/06/17 13:14:24;;;;;;;;;;;31.00;65.40;;;;;;5094780;28;20020;-78
2022/06/17 13:17:08;;;;;;;3.75;1.95;;;31.10;65.10;;;;;;5094161;28;20435;-77
2022/06/17 13:19:42;;;;;;;3.92;1.88;;;31.30;65.30;;;;;;5094203;28;20396;-79
2022/06/17 13:22:26;;;;;;;2.35;2.08;;;31.40;64.80;;;;;;5093725;28;20073;-78
2022/06/17 13:25:15;;;;;;;2.72;2.20;;;31.60;64.60;;;;;;5093211;28;20020;-79